Time;durP1;ratioP1;P1;durP2;ratioP2;P2;SDS_P1;SDS_P2;PMS_P1;PMS_P2;Temp;Humidity;BMP_temperature;BMP_pressure;BME280_temperature;BME280_humidity;BME280_pressure;Samples;Min_cycle;Max_cycle;Signal;HPM_P1;HPM_P2
2022/05/26 00:01:54;;;;;;;0.40;0.30;;;14.30;99.90;;;;;;5095402;28;20459;-83
2022/05/26 00:04:20;;;;;;;0.50;0.50;;;14.30;99.90;;;;;;5095651;28;20837;-83
2022/05/26 00:06:47;;;;;;;0.77;0.33;;;14.40;99.90;;;;;;5095715;28;20452;-83
2022/05/26 00:09:14;;;;;;;0.40;0.30;;;14.40;99.90;;;;;;5095419;28;20439;-83
2022/05/26 00:11:42;;;;;;;0.40;0.30;;;14.30;99.90;;;;;;5095633;28;20472;-83
2022/05/26 00:14:11;;;;;;;0.30;0.30;;;14.30;99.90;;;;;;5095208;28;20444;-83
2022/05/26 00:16:41;;;;;;;0.30;0.30;;;14.30;99.90;;;;;;5095600;28;20447;-83
2022/05/26 00:19:08;;;;;;;0.57;0.57;;;14.30;99.90;;;;;;5095423;28;20479;-84
2022/05/26 00:21:35;;;;;;;0.33;0.33;;;14.30;99.90;;;;;;5095431;28;20475;-83
2022/05/26 00:24:01;;;;;;;0.30;0.30;;;14.40;99.90;;;;;;5095300;28;20479;-83
2022/05/26 00:26:28;;;;;;;0.40;0.40;;;14.40;99.90;;;;;;5095116;28;20432;-83
2022/05/26 00:28:56;;;;;;;0.50;0.40;;;14.40;99.90;;;;;;5094130;28;20531;-84
2022/05/26 00:31:24;;;;;;;0.30;0.30;;;14.50;99.90;;;;;;5095195;28;20463;-83
2022/05/26 00:33:50;;;;;;;0.30;0.30;;;14.50;99.90;;;;;;5094869;28;20440;-83
2022/05/26 00:36:37;;;;;;;0.30;0.30;;;14.50;99.90;;;;;;5095080;28;20455;-83
2022/05/26 00:39:04;;;;;;;0.40;0.30;;;14.60;99.90;;;;;;5095162;28;20460;-83
2022/05/26 00:41:31;;;;;;;0.30;0.20;;;14.60;99.90;;;;;;5094806;28;20479;-83
2022/05/26 00:43:59;;;;;;;0.30;0.30;;;14.60;99.90;;;;;;5094925;28;20490;-83
2022/05/26 00:46:36;;;;;;;0.37;0.30;;;14.60;99.90;;;;;;5094745;28;20447;-83
2022/05/26 00:49:04;;;;;;;0.60;0.40;;;14.60;99.90;;;;;;5095014;28;20420;-83
2022/05/26 00:51:34;;;;;;;0.40;0.30;;;14.60;99.90;;;;;;5094831;28;20475;-83
2022/05/26 00:54:05;;;;;;;0.40;0.30;;;14.60;99.90;;;;;;5094543;28;20447;-83
2022/05/26 00:56:39;;;;;;;0.30;0.30;;;14.60;99.90;;;;;;5094839;28;20507;-83
2022/05/26 00:59:13;;;;;;;0.53;0.30;;;14.50;99.90;;;;;;5094525;28;20408;-83
2022/05/26 01:01:40;;;;;;;0.67;0.30;;;14.50;99.90;;;;;;5094704;28;20814;-83
2022/05/26 01:04:12;;;;;;;0.60;0.40;;;14.40;99.90;;;;;;5094289;28;21003;-83
2022/05/26 01:06:46;;;;;;;0.30;0.30;;;14.30;99.90;;;;;;5094744;28;20809;-83
2022/05/26 01:09:12;;;;;;;0.40;0.30;;;14.30;99.90;;;;;;5094294;28;20436;-83
2022/05/26 01:11:42;;;;;;;0.40;0.33;;;14.20;99.90;;;;;;5094423;28;20463;-83
2022/05/26 01:14:14;;;;;;;0.40;0.30;;;14.20;99.90;;;;;;5094023;28;20769;-83
2022/05/26 01:16:47;;;;;;;0.30;0.30;;;14.10;99.90;;;;;;5094919;28;20444;-83
2022/05/26 01:19:39;;;;;;;0.53;0.33;;;14.00;99.90;;;;;;5094259;28;20470;-83
2022/05/26 01:22:16;;;;;;;0.40;0.40;;;14.00;99.90;;;;;;5080726;28;20570;-83
2022/05/26 01:25:20;;;;;;;0.30;0.30;;;14.00;99.90;;;;;;5093990;28;20463;-83
2022/05/26 01:27:59;;;;;;;0.30;0.30;;;13.90;99.90;;;;;;5094276;28;20427;-83
2022/05/26 01:30:40;;;;;;;0.40;0.30;;;13.80;99.90;;;;;;5095876;28;20432;-83
2022/05/26 01:33:34;;;;;;;0.40;0.33;;;13.80;99.90;;;;;;5102563;28;20459;-83
2022/05/26 01:36:18;;;;;;;0.30;0.30;;;13.80;99.90;;;;;;5102898;28;20462;-83
2022/05/26 01:38:59;;;;;;;0.87;0.50;;;13.70;99.90;;;;;;5098941;28;20440;-83
2022/05/26 01:41:41;;;;;;;0.30;0.30;;;13.70;99.90;;;;;;5093551;28;20491;-83
2022/05/26 01:44:17;;;;;;;0.30;0.30;;;13.70;99.90;;;;;;5093594;28;20979;-83
2022/05/26 01:46:45;;;;;;;0.30;0.30;;;13.60;99.90;;;;;;5093544;28;20907;-83
2022/05/26 01:49:21;;;;;;;0.40;0.30;;;13.70;99.90;;;;;;5093753;28;20443;-84
2022/05/26 01:51:55;;;;;;;0.30;0.30;;;13.70;99.90;;;;;;5093505;28;20464;-83
2022/05/26 01:54:26;;;;;;;0.30;0.30;;;13.70;99.90;;;;;;5093806;28;20429;-83
2022/05/26 01:56:59;;;;;;;0.40;0.40;;;13.70;99.90;;;;;;5094157;28;20448;-83
2022/05/26 01:59:29;;;;;;;0.40;0.30;;;13.70;99.90;;;;;;5093708;28;20436;-83
2022/05/26 02:02:00;;;;;;;0.30;0.30;;;13.70;99.90;;;;;;5093633;28;20473;-83
2022/05/26 02:04:32;;;;;;;0.63;0.30;;;13.70;99.90;;;;;;5093595;28;20462;-83
2022/05/26 02:07:02;;;;;;;0.37;0.30;;;13.70;99.90;;;;;;5093680;28;20432;-83
2022/05/26 02:09:34;;;;;;;0.60;0.60;;;13.70;99.90;;;;;;5093927;28;20429;-84
2022/05/26 02:12:06;;;;;;;0.30;0.30;;;13.70;99.90;;;;;;5093603;28;20511;-84
2022/05/26 02:14:37;;;;;;;0.30;0.30;;;13.80;99.90;;;;;;5093304;28;20444;-84
2022/05/26 02:17:12;;;;;;;0.30;0.30;;;13.80;99.90;;;;;;5093206;28;20413;-84
2022/05/26 02:19:43;;;;;;;0.40;0.30;;;13.70;99.90;;;;;;5093584;28;20423;-83
2022/05/26 02:22:15;;;;;;;0.40;0.40;;;13.70;99.90;;;;;;5094084;28;20483;-83
2022/05/26 02:24:46;;;;;;;1.40;0.60;;;13.70;99.90;;;;;;5093326;28;20472;-83
2022/05/26 02:27:13;;;;;;;0.40;0.30;;;13.60;99.90;;;;;;5093257;28;20432;-84
2022/05/26 02:29:52;;;;;;;0.50;0.30;;;13.60;99.90;;;;;;5093472;28;20456;-83
2022/05/26 02:32:22;;;;;;;0.40;0.30;;;13.50;99.90;;;;;;5093078;28;20448;-83
2022/05/26 02:34:52;;;;;;;0.30;0.30;;;13.50;99.90;;;;;;5093321;28;20813;-83
2022/05/26 02:37:21;;;;;;;0.40;0.40;;;13.50;99.90;;;;;;5093351;28;20427;-83
2022/05/26 02:39:48;;;;;;;0.40;0.30;;;13.50;99.90;;;;;;5093242;28;20440;-83
2022/05/26 02:42:15;;;;;;;2.20;0.40;;;13.50;99.90;;;;;;5093012;28;21044;-83
2022/05/26 02:44:44;;;;;;;0.40;0.30;;;13.50;99.90;;;;;;5092897;28;20491;-84
2022/05/26 02:47:23;;;;;;;0.30;0.27;;;13.50;99.90;;;;;;5093281;28;20456;-83
2022/05/26 02:50:02;;;;;;;0.40;0.30;;;13.50;99.90;;;;;;5092979;28;20916;-83
2022/05/26 02:52:35;;;;;;;0.30;0.30;;;13.50;99.90;;;;;;5096250;28;20490;-83
2022/05/26 02:55:15;;;;;;;0.40;0.40;;;13.50;99.90;;;;;;5096946;28;20495;-83
2022/05/26 02:57:52;;;;;;;0.30;0.30;;;13.60;99.90;;;;;;5096864;28;20432;-83
2022/05/26 03:00:23;;;;;;;0.30;0.30;;;13.60;99.90;;;;;;5096987;28;20439;-83
2022/05/26 03:02:56;;;;;;;0.40;0.30;;;13.60;99.90;;;;;;5097038;28;20476;-83
2022/05/26 03:05:28;;;;;;;0.30;0.30;;;13.60;99.90;;;;;;5097716;28;20468;-83
2022/05/26 03:07:59;;;;;;;0.50;0.40;;;13.50;99.90;;;;;;5096998;28;20435;-83
2022/05/26 03:10:29;;;;;;;0.30;0.30;;;13.50;99.90;;;;;;5096911;28;20428;-84
2022/05/26 03:12:59;;;;;;;0.40;0.30;;;13.50;99.90;;;;;;5096398;28;20479;-83
2022/05/26 03:15:27;;;;;;;0.33;0.30;;;13.40;99.90;;;;;;5096742;28;20523;-83
2022/05/26 03:17:53;;;;;;;0.30;0.30;;;13.40;99.90;;;;;;5096352;28;20451;-83
2022/05/26 03:20:20;;;;;;;0.40;0.30;;;13.40;99.90;;;;;;5096782;28;20432;-83
2022/05/26 03:22:49;;;;;;;0.30;0.30;;;13.40;99.90;;;;;;5096760;28;20489;-83
2022/05/26 03:25:16;;;;;;;0.60;0.40;;;13.40;99.90;;;;;;5096274;28;20467;-83
2022/05/26 03:27:43;;;;;;;0.30;0.30;;;13.40;99.90;;;;;;5096502;28;20447;-82
2022/05/26 03:30:10;;;;;;;0.30;0.30;;;13.40;99.90;;;;;;5096697;28;20443;-83
2022/05/26 03:32:37;;;;;;;0.40;0.30;;;13.40;99.90;;;;;;5096329;28;20478;-83
2022/05/26 03:40:50;;;;;;;0.30;0.30;;;13.30;99.90;;;;;;5096343;28;20486;-84
2022/05/26 03:43:17;;;;;;;0.30;0.30;;;13.30;99.90;;;;;;5096129;28;20467;-84
2022/05/26 03:45:45;;;;;;;0.40;0.30;;;13.30;99.90;;;;;;5096199;28;20455;-84
2022/05/26 03:48:12;;;;;;;0.30;0.30;;;13.30;99.90;;;;;;5095944;28;20455;-84
2022/05/26 03:50:39;;;;;;;0.60;0.60;;;13.30;99.90;;;;;;5096185;28;20448;-84
2022/05/26 03:53:07;;;;;;;0.30;0.30;;;13.30;99.90;;;;;;5095888;28;20822;-84
2022/05/26 03:55:34;;;;;;;0.77;0.50;;;13.30;99.90;;;;;;5096017;28;20806;-85
2022/05/26 03:58:03;;;;;;;0.40;0.30;;;13.30;99.90;;;;;;5096040;28;20452;-84
2022/05/26 04:00:31;;;;;;;0.33;0.27;;;13.30;99.90;;;;;;5095703;28;20436;-85
2022/05/26 04:02:58;;;;;;;0.40;0.30;;;13.30;99.90;;;;;;5094746;28;20509;-85
2022/05/26 04:05:25;;;;;;;0.40;0.30;;;13.30;99.90;;;;;;5095853;28;20480;-84
2022/05/26 04:07:52;;;;;;;0.30;0.30;;;13.30;99.90;;;;;;5099850;28;20447;-85
2022/05/26 04:10:20;;;;;;;0.37;0.30;;;13.30;99.90;;;;;;5107262;28;20458;-85
2022/05/26 04:12:47;;;;;;;0.30;0.30;;;13.30;99.90;;;;;;5107058;28;20509;-84
2022/05/26 04:15:15;;;;;;;0.40;0.30;;;13.30;99.90;;;;;;5104486;28;20429;-85
2022/05/26 04:17:42;;;;;;;0.40;0.40;;;13.40;99.90;;;;;;5095823;28;20448;-84
2022/05/26 04:20:13;;;;;;;0.50;0.30;;;13.40;99.90;;;;;;5095547;28;20432;-84
2022/05/26 04:22:39;;;;;;;0.40;0.30;;;13.40;99.90;;;;;;5095220;28;20472;-84
2022/05/26 04:25:08;;;;;;;0.40;0.30;;;13.40;99.90;;;;;;5095052;28;21005;-85
2022/05/26 04:27:37;;;;;;;0.33;0.30;;;13.40;99.90;;;;;;5095248;28;20455;-85
2022/05/26 04:30:06;;;;;;;0.40;0.30;;;13.40;99.90;;;;;;5095141;28;20944;-85
2022/05/26 04:32:33;;;;;;;0.40;0.30;;;13.40;99.90;;;;;;5095038;28;20831;-85
2022/05/26 04:35:00;;;;;;;0.30;0.30;;;13.40;99.90;;;;;;5095199;28;20439;-85
2022/05/26 04:37:28;;;;;;;0.30;0.30;;;13.40;99.90;;;;;;5095211;28;20447;-84
2022/05/26 04:39:56;;;;;;;0.40;0.30;;;13.40;99.90;;;;;;5095392;28;20471;-85
2022/05/26 04:42:24;;;;;;;0.63;0.50;;;13.50;99.90;;;;;;5095235;28;20543;-84
2022/05/26 04:44:52;;;;;;;0.40;0.30;;;13.50;99.90;;;;;;5094640;28;20487;-84
2022/05/26 04:47:20;;;;;;;0.40;0.33;;;13.50;99.90;;;;;;5094959;28;20474;-85
2022/05/26 04:49:47;;;;;;;0.33;0.27;;;13.50;99.90;;;;;;5094957;28;20455;-85
2022/05/26 04:52:16;;;;;;;0.40;0.33;;;13.50;99.90;;;;;;5094892;28;20468;-85
2022/05/26 04:54:44;;;;;;;0.30;0.30;;;13.50;99.90;;;;;;5094569;28;20919;-85
2022/05/26 04:57:11;;;;;;;0.37;0.30;;;13.60;99.90;;;;;;5094942;28;20439;-85
2022/05/26 04:59:39;;;;;;;0.40;0.40;;;13.60;99.90;;;;;;5094549;28;20989;-85
2022/05/26 05:02:11;;;;;;;0.40;0.40;;;13.60;99.90;;;;;;5094726;28;21017;-85
2022/05/26 05:04:40;;;;;;;0.30;0.30;;;13.70;99.90;;;;;;5094705;28;20521;-85
2022/05/26 05:07:08;;;;;;;0.40;0.33;;;13.70;99.90;;;;;;5094639;28;20531;-85
2022/05/26 05:09:35;;;;;;;0.30;0.30;;;13.80;99.90;;;;;;5094550;28;20569;-86
2022/05/26 05:12:01;;;;;;;0.37;0.30;;;13.80;99.90;;;;;;5094589;28;20452;-85
2022/05/26 05:14:29;;;;;;;0.40;0.30;;;13.80;99.90;;;;;;5094045;28;20466;-85
2022/05/26 05:16:56;;;;;;;0.70;0.60;;;13.80;99.90;;;;;;5094520;28;20428;-84
2022/05/26 05:19:24;;;;;;;0.30;0.20;;;13.90;99.90;;;;;;5094414;28;20455;-85
2022/05/26 05:21:56;;;;;;;0.40;0.40;;;13.80;99.90;;;;;;5094324;28;20468;-85
2022/05/26 05:24:27;;;;;;;0.40;0.40;;;13.90;99.90;;;;;;5094166;28;20836;-84
2022/05/26 05:27:00;;;;;;;0.30;0.30;;;14.00;99.90;;;;;;5094181;28;20428;-85
2022/05/26 05:29:33;;;;;;;0.30;0.30;;;14.10;99.90;;;;;;5094328;28;20440;-85
2022/05/26 05:32:06;;;;;;;5.20;0.40;;;14.10;99.90;;;;;;5094020;28;20452;-84
2022/05/26 05:34:39;;;;;;;0.40;0.40;;;14.10;99.90;;;;;;5093875;28;20432;-86
2022/05/26 05:37:06;;;;;;;0.40;0.40;;;14.20;99.90;;;;;;5094210;28;20439;-85
2022/05/26 05:39:33;;;;;;;0.40;0.33;;;14.30;99.90;;;;;;5094050;28;20448;-85
2022/05/26 05:42:00;;;;;;;0.30;0.30;;;14.40;99.90;;;;;;5093609;28;20483;-85
2022/05/26 05:44:28;;;;;;;0.30;0.30;;;14.50;99.90;;;;;;5093620;28;20487;-85
2022/05/26 05:46:57;;;;;;;0.40;0.30;;;14.50;99.90;;;;;;5093638;28;20935;-85
2022/05/26 05:49:26;;;;;;;0.40;0.30;;;14.60;99.90;;;;;;5093936;28;20451;-85
2022/05/26 05:51:54;;;;;;;0.30;0.30;;;14.70;99.90;;;;;;5094037;28;20839;-85
2022/05/26 05:54:21;;;;;;;0.30;0.30;;;14.90;99.90;;;;;;5093541;28;20931;-85
2022/05/26 05:56:48;;;;;;;0.40;0.30;;;15.00;99.90;;;;;;5093848;28;20448;-85
2022/05/26 05:59:15;;;;;;;0.30;0.30;;;15.30;99.90;;;;;;5093537;28;20448;-85
2022/05/26 06:01:42;;;;;;;0.37;0.33;;;15.50;99.90;;;;;;5093423;28;20456;-85
2022/05/26 06:04:10;;;;;;;0.40;0.40;;;15.60;99.90;;;;;;5093298;28;20440;-85
2022/05/26 06:06:38;;;;;;;0.40;0.30;;;15.60;99.90;;;;;;5093404;28;20770;-85
2022/05/26 06:09:07;;;;;;;0.30;0.30;;;15.70;99.90;;;;;;5093585;28;20447;-85
2022/05/26 06:11:34;;;;;;;0.30;0.30;;;15.60;99.90;;;;;;5093513;28;20463;-85
2022/05/26 06:14:01;;;;;;;0.30;0.30;;;15.60;99.90;;;;;;5093286;28;20447;-85
2022/05/26 06:16:29;;;;;;;0.40;0.30;;;15.60;99.90;;;;;;5093648;28;20455;-85
2022/05/26 06:18:56;;;;;;;0.50;0.40;;;15.60;99.90;;;;;;5093586;28;20534;-85
2022/05/26 06:21:23;;;;;;;0.40;0.30;;;15.70;99.90;;;;;;5093720;28;20459;-85
2022/05/26 06:23:51;;;;;;;0.40;0.30;;;15.80;99.90;;;;;;5093346;28;20443;-85
2022/05/26 06:26:19;;;;;;;0.30;0.30;;;16.00;99.90;;;;;;5094952;28;20478;-85
2022/05/26 06:31:30;;;;;;;0.40;0.30;;;16.40;99.90;;;;;;5097649;28;20447;-85
2022/05/26 06:39:26;;;;;;;0.40;0.37;;;17.20;99.90;;;;;;5097685;28;20783;-85
2022/05/26 06:42:10;;;;;;;0.40;0.40;;;17.60;99.90;;;;;;5097155;28;20475;-85
2022/05/26 06:44:38;;;;;;;0.30;0.30;;;17.80;99.90;;;;;;5097314;28;20468;-86
2022/05/26 06:47:10;;;;;;;0.83;0.57;;;17.80;99.90;;;;;;5097521;28;20821;-85
2022/05/26 06:49:39;;;;;;;0.30;0.30;;;17.60;99.90;;;;;;5101344;28;20439;-85
2022/05/26 06:52:07;;;;;;;0.30;0.30;;;17.50;99.90;;;;;;5114161;28;20433;-86
2022/05/26 06:54:36;;;;;;;0.30;0.30;;;17.30;99.90;;;;;;5112129;28;20420;-85
2022/05/26 06:57:07;;;;;;;1.13;0.50;;;17.30;99.90;;;;;;5104122;28;20439;-85
2022/05/26 06:59:34;;;;;;;0.40;0.30;;;17.20;99.90;;;;;;5097326;28;20468;-85
2022/05/26 07:02:01;;;;;;;0.40;0.30;;;17.00;99.90;;;;;;5097264;28;20476;-84
2022/05/26 07:04:28;;;;;;;0.30;0.30;;;17.00;99.90;;;;;;5098077;28;20436;-84
2022/05/26 07:06:56;;;;;;;0.30;0.30;;;16.90;99.90;;;;;;5097272;28;20817;-85
2022/05/26 07:09:24;;;;;;;0.30;0.30;;;16.90;99.90;;;;;;5097019;28;20432;-84
2022/05/26 07:11:51;;;;;;;0.30;0.30;;;16.90;99.90;;;;;;5097102;28;20470;-84
2022/05/26 07:14:20;;;;;;;0.30;0.30;;;16.80;99.90;;;;;;5096850;28;20471;-84
2022/05/26 07:16:47;;;;;;;0.30;0.30;;;16.70;99.90;;;;;;5096810;28;20439;-84
2022/05/26 07:19:15;;;;;;;0.30;0.30;;;16.80;99.90;;;;;;5096713;28;20451;-84
2022/05/26 07:21:43;;;;;;;0.50;0.40;;;16.70;99.90;;;;;;5096558;28;20472;-84
2022/05/26 07:24:10;;;;;;;0.30;0.30;;;16.70;99.90;;;;;;5096703;28;20508;-84
2022/05/26 07:26:38;;;;;;;0.40;0.30;;;16.70;99.90;;;;;;5096469;28;20484;-85
2022/05/26 07:29:04;;;;;;;0.60;0.30;;;16.70;99.90;;;;;;5096536;28;20444;-85
2022/05/26 07:31:33;;;;;;;0.40;0.40;;;16.60;99.90;;;;;;5096040;28;20459;-84
2022/05/26 07:34:00;;;;;;;0.30;0.30;;;16.70;99.90;;;;;;5096334;28;20448;-84
2022/05/26 07:41:59;;;;;;;0.30;0.27;;;16.90;99.90;;;;;;5095966;28;20467;-85
2022/05/26 07:44:28;;;;;;;0.40;0.40;;;17.00;99.90;;;;;;5096286;28;20455;-85
2022/05/26 07:46:56;;;;;;;0.40;0.30;;;17.10;99.90;;;;;;5095937;28;20424;-85
2022/05/26 07:49:23;;;;;;;0.40;0.40;;;17.20;99.90;;;;;;5095821;28;20444;-85
2022/05/26 07:51:50;;;;;;;0.40;0.40;;;17.30;99.90;;;;;;5095733;28;20455;-84
2022/05/26 07:54:16;;;;;;;0.40;0.30;;;17.40;99.90;;;;;;5095900;28;20451;-84
2022/05/26 07:56:43;;;;;;;0.60;0.37;;;17.50;99.90;;;;;;5095767;28;20440;-85
2022/05/26 07:59:10;;;;;;;0.40;0.30;;;17.60;99.90;;;;;;5095855;28;20451;-86
2022/05/26 08:01:37;;;;;;;0.40;0.40;;;17.70;99.90;;;;;;5095569;28;20472;-84
2022/05/26 08:04:07;;;;;;;0.40;0.30;;;17.70;99.90;;;;;;5095803;28;20431;-84
2022/05/26 08:06:35;;;;;;;0.30;0.30;;;17.80;99.90;;;;;;5095642;28;20487;-84
2022/05/26 08:09:01;;;;;;;0.33;0.33;;;17.70;99.90;;;;;;5095540;28;20984;-85
2022/05/26 08:11:28;;;;;;;0.40;0.30;;;17.90;99.90;;;;;;5095344;28;20826;-84
2022/05/26 08:13:55;;;;;;;0.40;0.30;;;18.00;99.90;;;;;;5095644;28;20466;-84
2022/05/26 08:16:22;;;;;;;0.40;0.30;;;18.20;99.90;;;;;;5095647;28;20958;-84
2022/05/26 08:18:49;;;;;;;1.40;0.33;;;18.40;99.90;;;;;;5095549;28;20458;-85
2022/05/26 08:21:18;;;;;;;0.30;0.30;;;18.60;99.90;;;;;;5095637;28;20442;-85
2022/05/26 08:23:46;;;;;;;0.40;0.30;;;18.90;99.90;;;;;;5095469;28;20450;-85
2022/05/26 08:26:13;;;;;;;0.50;0.40;;;19.20;99.90;;;;;;5095472;28;20544;-84
2022/05/26 08:28:40;;;;;;;0.40;0.30;;;19.30;99.90;;;;;;5095077;28;20440;-84
2022/05/26 08:31:08;;;;;;;0.40;0.30;;;19.20;99.90;;;;;;5095140;28;20436;-84
2022/05/26 08:33:36;;;;;;;0.37;0.30;;;19.00;99.90;;;;;;5095185;28;20439;-84
2022/05/26 08:36:04;;;;;;;0.40;0.33;;;18.90;99.90;;;;;;5095253;28;20479;-84
2022/05/26 08:38:32;;;;;;;0.40;0.30;;;18.80;99.90;;;;;;5094803;28;20458;-84
2022/05/26 08:40:59;;;;;;;2.37;1.20;;;18.60;99.90;;;;;;5094768;28;20514;-84
2022/05/26 08:43:33;;;;;;;0.60;0.30;;;18.60;99.90;;;;;;5094749;28;20483;-85
2022/05/26 08:46:00;;;;;;;0.40;0.30;;;18.40;99.90;;;;;;5094669;28;20860;-84
2022/05/26 08:48:43;;;;;;;0.47;0.40;;;18.30;99.90;;;;;;5094333;28;20419;-85
2022/05/26 08:51:13;;;;;;;0.40;0.40;;;18.20;99.90;;;;;;5094805;28;20438;-84
2022/05/26 08:53:42;;;;;;;0.53;0.40;;;18.20;99.90;;;;;;5094702;28;20486;-84
2022/05/26 08:56:12;;;;;;;0.30;0.30;;;18.20;99.90;;;;;;5095090;28;20423;-84
2022/05/26 08:58:45;;;;;;;0.33;0.30;;;18.30;99.90;;;;;;5094975;28;20462;-84
2022/05/26 09:01:15;;;;;;;0.30;0.30;;;18.30;99.90;;;;;;5094560;28;20412;-84
2022/05/26 09:03:42;;;;;;;0.40;0.30;;;18.30;99.90;;;;;;5094957;28;20528;-84
2022/05/26 09:06:11;;;;;;;0.40;0.30;;;18.40;99.90;;;;;;5094529;28;20486;-84
2022/05/26 09:14:23;;;;;;;0.40;0.30;;;19.40;99.90;;;;;;5093201;28;20577;-84
2022/05/26 09:16:50;;;;;;;0.30;0.27;;;19.80;99.90;;;;;;5094633;28;20427;-84
2022/05/26 09:19:20;;;;;;;0.40;0.40;;;19.90;99.90;;;;;;5094649;28;20456;-86
2022/05/26 09:21:49;;;;;;;0.40;0.40;;;20.00;99.90;;;;;;5094811;28;20494;-84
2022/05/26 09:24:22;;;;;;;0.40;0.40;;;20.10;99.90;;;;;;5094651;28;20451;-84
2022/05/26 09:26:54;;;;;;;0.40;0.30;;;20.10;99.90;;;;;;5094829;28;20467;-84
2022/05/26 09:29:26;;;;;;;0.40;0.30;;;20.00;99.90;;;;;;5105279;28;20436;-84
2022/05/26 09:31:53;;;;;;;0.40;0.30;;;19.90;99.90;;;;;;5112907;28;20489;-84
2022/05/26 09:34:23;;;;;;;0.50;0.30;;;19.70;99.90;;;;;;5112590;28;20432;-84
2022/05/26 09:36:52;;;;;;;0.30;0.30;;;19.50;99.90;;;;;;5106776;28;20432;-81
2022/05/26 09:39:23;;;;;;;0.40;0.30;;;19.10;99.90;;;;;;5094894;28;20447;-82
2022/05/26 09:41:53;;;;;;;0.30;0.30;;;18.90;99.90;;;;;;5093657;28;20479;-81
2022/05/26 09:44:39;;;;;;;0.60;0.40;;;18.80;99.90;;;;;;5094094;28;20962;-84
2022/05/26 09:47:22;;;;;;;0.50;0.50;;;18.70;99.90;;;;;;5093925;28;20475;-85
2022/05/26 09:49:51;;;;;;;0.30;0.30;;;18.70;99.90;;;;;;5093932;28;20439;-84
2022/05/26 09:52:20;;;;;;;0.40;0.40;;;18.60;99.90;;;;;;5093512;28;20459;-85
2022/05/26 09:54:49;;;;;;;0.30;0.30;;;18.60;99.90;;;;;;5093657;28;20455;-85
2022/05/26 09:57:20;;;;;;;0.30;0.30;;;18.40;99.90;;;;;;5093842;28;20436;-84
2022/05/26 09:59:47;;;;;;;0.40;0.40;;;18.40;99.90;;;;;;5093990;28;20428;-84
2022/05/26 10:02:19;;;;;;;0.33;0.33;;;18.20;99.90;;;;;;5093346;28;20453;-84
2022/05/26 10:05:01;;;;;;;0.40;0.30;;;18.20;99.90;;;;;;5093445;28;20781;-84
2022/05/26 10:07:39;;;;;;;0.40;0.30;;;18.10;99.90;;;;;;5094139;28;20835;-84
2022/05/26 10:10:14;;;;;;;0.30;0.30;;;17.90;99.90;;;;;;5093519;28;20420;-84
2022/05/26 10:12:52;;;;;;;0.70;0.30;;;17.90;99.90;;;;;;5093375;28;20463;-84
2022/05/26 10:15:27;;;;;;;0.40;0.30;;;17.90;99.90;;;;;;5093896;28;20830;-84
2022/05/26 10:18:14;;;;;;;0.40;0.30;;;17.90;99.90;;;;;;5093170;28;20415;-83
2022/05/26 10:20:50;;;;;;;0.30;0.30;;;18.00;99.90;;;;;;5093397;28;20950;-84
2022/05/26 10:23:50;;;;;;;0.30;0.30;;;18.10;99.90;;;;;;5093171;28;20819;-84
2022/05/26 10:26:27;;;;;;;0.30;0.30;;;18.20;99.90;;;;;;5093504;28;20472;-84
2022/05/26 10:29:09;;;;;;;0.40;0.40;;;18.20;99.90;;;;;;5093491;28;20413;-84
2022/05/26 10:32:05;;;;;;;0.40;0.30;;;18.20;99.90;;;;;;5093562;28;20460;-84
2022/05/26 10:34:41;;;;;;;0.40;0.30;;;18.00;99.90;;;;;;5085211;28;20541;-83
2022/05/26 10:37:19;;;;;;;0.40;0.30;;;18.00;99.90;;;;;;5093351;28;20435;-84
2022/05/26 10:40:07;;;;;;;0.33;0.27;;;18.00;99.90;;;;;;5093194;28;20435;-84
2022/05/26 10:42:39;;;;;;;0.70;0.50;;;17.90;99.90;;;;;;5093268;28;20543;-84
2022/05/26 10:45:13;;;;;;;4.23;0.40;;;17.90;99.90;;;;;;5093297;28;20436;-84
2022/05/26 10:47:49;;;;;;;0.50;0.30;;;17.80;99.90;;;;;;5093073;28;20473;-83
2022/05/26 10:50:22;;;;;;;0.40;0.30;;;17.80;99.90;;;;;;5093267;28;20433;-83
2022/05/26 10:52:55;;;;;;;0.30;0.30;;;17.80;99.90;;;;;;5093081;28;20990;-83
2022/05/26 10:55:31;;;;;;;0.30;0.30;;;18.00;99.90;;;;;;5092775;28;20428;-84
2022/05/26 10:58:05;;;;;;;0.30;0.30;;;18.10;99.90;;;;;;5093363;28;20420;-84
2022/05/26 11:00:33;;;;;;;0.40;0.30;;;18.20;99.90;;;;;;5092762;28;20425;-84
2022/05/26 11:03:07;;;;;;;0.60;0.50;;;18.30;99.90;;;;;;5093018;28;20468;-83
2022/05/26 11:05:38;;;;;;;0.50;0.40;;;18.40;99.90;;;;;;5093683;28;20754;-84
2022/05/26 11:08:25;;;;;;;0.40;0.40;;;18.50;99.90;;;;;;5093242;28;20892;-84
2022/05/26 11:10:55;;;;;;;0.50;0.40;;;18.50;99.90;;;;;;5092870;28;20431;-84
2022/05/26 11:13:35;;;;;;;0.40;0.40;;;18.30;99.90;;;;;;5095517;28;20468;-84
2022/05/26 11:18:53;;;;;;;0.40;0.30;;;18.20;99.90;;;;;;5096493;28;20474;-84
2022/05/26 11:21:21;;;;;;;0.40;0.33;;;18.00;99.90;;;;;;5096535;28;20460;-84
2022/05/26 11:23:49;;;;;;;0.30;0.30;;;18.00;99.90;;;;;;5096291;28;20927;-84
2022/05/26 11:26:25;;;;;;;0.40;0.33;;;17.90;99.90;;;;;;5096414;28;20502;-84
2022/05/26 11:28:57;;;;;;;0.30;0.30;;;17.90;99.90;;;;;;5097305;28;20435;-84
2022/05/26 11:37:20;;;;;;;0.40;0.30;;;17.80;99.90;;;;;;5096590;28;20471;-84
2022/05/26 11:39:52;;;;;;;0.40;0.30;;;17.90;99.90;;;;;;5096332;28;20439;-85
2022/05/26 11:42:28;;;;;;;3.50;1.13;;;18.00;99.90;;;;;;5096135;28;20480;-84
2022/05/26 11:45:10;;;;;;;0.37;0.30;;;18.10;99.90;;;;;;5096714;28;20447;-84
2022/05/26 11:47:53;;;;;;;0.30;0.30;;;18.20;99.90;;;;;;5096150;28;20467;-84
2022/05/26 11:50:30;;;;;;;0.67;0.30;;;18.30;99.90;;;;;;5096421;28;20435;-85
2022/05/26 11:53:30;;;;;;;0.53;0.53;;;18.50;99.90;;;;;;5096165;28;20451;-84
2022/05/26 11:55:58;;;;;;;0.30;0.30;;;18.60;99.90;;;;;;5096145;28;20432;-84
2022/05/26 11:58:37;;;;;;;0.40;0.40;;;18.70;99.90;;;;;;5095910;28;20436;-83
2022/05/26 12:01:17;;;;;;;0.60;0.60;;;18.80;99.90;;;;;;5095802;28;20792;-84
2022/05/26 12:04:07;;;;;;;0.40;0.40;;;18.70;99.90;;;;;;5095942;28;20428;-84
2022/05/26 12:06:40;;;;;;;0.80;0.40;;;18.60;99.90;;;;;;5095846;28;20460;-84
2022/05/26 12:09:12;;;;;;;0.50;0.40;;;18.50;99.90;;;;;;5096023;28;20477;-84
2022/05/26 12:11:55;;;;;;;0.60;0.60;;;18.40;99.90;;;;;;5095683;28;20456;-84
2022/05/26 12:14:24;;;;;;;0.37;0.30;;;18.30;99.90;;;;;;5096498;28;20409;-84
2022/05/26 12:16:52;;;;;;;0.30;0.30;;;18.30;99.90;;;;;;5096253;28;20448;-84
2022/05/26 12:19:42;;;;;;;0.30;0.30;;;18.30;99.90;;;;;;5096795;28;20440;-84
2022/05/26 12:22:23;;;;;;;0.40;0.30;;;18.40;99.90;;;;;;5096187;28;20456;-84
2022/05/26 12:25:19;;;;;;;0.70;0.40;;;18.60;99.90;;;;;;5094340;28;20432;-85
2022/05/26 12:28:29;;;;;;;2.10;0.40;;;18.70;99.90;;;;;;5094881;28;20483;-84
2022/05/26 12:31:14;;;;;;;0.40;0.40;;;19.00;99.90;;;;;;5095494;28;20428;-84
2022/05/26 12:34:11;;;;;;;0.30;0.30;;;19.20;99.90;;;;;;5095320;28;20425;-84
2022/05/26 12:36:51;;;;;;;0.30;0.30;;;19.20;99.90;;;;;;5095541;28;20444;-84
2022/05/26 12:39:55;;;;;;;0.40;0.40;;;19.20;99.90;;;;;;5095111;28;20497;-85
2022/05/26 12:42:37;;;;;;;0.40;0.30;;;19.30;99.90;;;;;;5012725;28;20471;-84
2022/05/26 12:45:43;;;;;;;0.40;0.30;;;19.40;99.90;;;;;;5083428;28;20456;-83
2022/05/26 12:48:37;;;;;;;0.50;0.40;;;19.40;99.90;;;;;;5080674;28;20855;-84
2022/05/26 12:51:10;;;;;;;0.40;0.40;;;19.60;99.90;;;;;;5094832;28;20834;-84
2022/05/26 12:53:39;;;;;;;0.40;0.40;;;19.70;99.90;;;;;;5095241;28;20448;-84
2022/05/26 12:56:11;;;;;;;0.40;0.40;;;19.80;99.90;;;;;;5094742;28;20497;-84
2022/05/26 12:58:40;;;;;;;0.97;0.37;;;20.00;99.90;;;;;;5094863;28;20493;-84
2022/05/26 13:01:12;;;;;;;0.40;0.33;;;20.00;99.90;;;;;;5094710;28;20458;-83
2022/05/26 13:03:42;;;;;;;0.40;0.40;;;19.90;99.90;;;;;;5095277;28;20930;-83
2022/05/26 13:06:12;;;;;;;0.93;0.93;;;19.80;99.90;;;;;;5094516;28;20436;-84
2022/05/26 13:08:47;;;;;;;0.43;0.40;;;19.70;99.90;;;;;;5094479;28;20436;-84
2022/05/26 13:11:17;;;;;;;0.50;0.50;;;19.60;99.90;;;;;;5094667;28;20427;-83
2022/05/26 13:13:49;;;;;;;0.40;0.40;;;19.60;99.90;;;;;;5093944;28;20454;-84
2022/05/26 13:16:24;;;;;;;0.50;0.40;;;19.50;99.90;;;;;;5094355;28;20412;-84
2022/05/26 13:18:51;;;;;;;0.40;0.40;;;19.50;99.90;;;;;;5094299;28;20430;-83
2022/05/26 13:21:22;;;;;;;0.40;0.30;;;19.40;99.90;;;;;;5093985;28;20792;-84
2022/05/26 13:23:50;;;;;;;0.40;0.40;;;19.50;99.90;;;;;;5094275;28;20431;-84
2022/05/26 13:26:18;;;;;;;0.50;0.50;;;19.40;99.90;;;;;;5093794;28;20447;-84
2022/05/26 13:28:49;;;;;;;0.40;0.30;;;19.50;99.90;;;;;;5093778;28;20450;-83
2022/05/26 13:34:05;;;;;;;0.40;0.30;;;19.20;99.90;;;;;;5093857;28;20482;-83
2022/05/26 13:36:35;;;;;;;0.40;0.30;;;19.30;99.90;;;;;;5093291;28;20452;-84
2022/05/26 13:39:08;;;;;;;0.30;0.30;;;19.40;99.90;;;;;;5094203;28;20436;-84
2022/05/26 13:41:36;;;;;;;0.70;0.70;;;19.40;99.90;;;;;;5093439;28;20550;-83
2022/05/26 13:44:06;;;;;;;0.30;0.30;;;19.50;99.90;;;;;;5093969;28;20447;-84
2022/05/26 13:46:35;;;;;;;0.57;0.50;;;19.50;99.90;;;;;;5093806;28;20451;-84
2022/05/26 13:49:16;;;;;;;1.30;0.40;;;19.40;99.90;;;;;;5093477;28;20432;-83